Here is the Quick Look data you requested

The Data originates at the National Weather Service, and is made available here by the UAlbany Department of Atmospheric and Environmental Sciences

Surface Observations

KMTN 202355Z 27007KT 10SM SCT065 SCT160 BKN250 33/25 A2985=
KMTN 210045Z 00000KT 10SM FEW060 SCT160 BKN250 32/24 A2986=
KMTN 210145Z 00000KT 10SM SCT160 SCT250 31/26 A2986=
KMTN 210203Z AUTO 00000KT 10SM CLR 30/25 A2987 RMK AO2=
KMTN 210221Z AUTO 00000KT 10SM CLR 30/26 A2987 RMK AO2=
KMTN 210242Z AUTO 00000KT 10SM CLR 30/25 A2987 RMK AO2=
KMTN 210303Z AUTO 00000KT 10SM CLR 30/26 A2986 RMK AO2=
KMTN 210321Z AUTO 00000KT 10SM CLR 29/27 A2985 RMK AO2=
KMTN 210342Z AUTO 00000KT 10SM CLR 29/27 A2985 RMK AO2=
KMTN 210403Z AUTO 00000KT 10SM CLR 29/26 A2986 RMK AO2=
KMTN 210421Z AUTO 00000KT 10SM CLR 28/27 A2986 RMK AO2=
KMTN 210442Z AUTO 00000KT 10SM CLR 28/26 A2987 RMK AO2=
KMTN 210503Z AUTO 00000KT 10SM CLR 28/26 A2987 RMK AO2=
KMTN 210521Z AUTO 00000KT 10SM CLR 28/26 A2987 RMK AO2=
KMTN 210542Z AUTO 22003KT 10SM CLR 30/26 A2987 RMK AO2=
KMTN 210603Z AUTO 25003KT 10SM CLR 30/25 A2987 RMK AO2=
KMTN 210621Z AUTO 00000KT 10SM CLR 28/25 A2987 RMK AO2=
KMTN 210642Z AUTO 00000KT 10SM CLR 29/25 A2987 RMK AO2=
KMTN 210703Z AUTO 00000KT 10SM CLR 29/25 A2987 RMK AO2=
KMTN 210721Z AUTO 00000KT 10SM CLR 28/25 A2986 RMK AO2=
KMTN 210742Z AUTO 00000KT 10SM CLR 28/25 A2985 RMK AO2=
KMTN 210803Z AUTO 00000KT 10SM CLR 29/26 A2984 RMK AO2=
KMTN 210821Z AUTO 00000KT 10SM CLR 28/26 A2984 RMK AO2=
KMTN 210842Z AUTO 27003KT 10SM CLR 27/26 A2984 RMK AO2=
KMTN 210903Z AUTO 00000KT 10SM CLR 28/26 A2984 RMK AO2=
KMTN 210921Z AUTO 00000KT 10SM CLR 28/26 A2984 RMK AO2=
KMTN 210930Z AUTO 24003KT 10SM CLR 28/26 A2985 RMK AO2=
KMTN 210945Z 24003KT 6SM BR FEW150 28/26 A2985=
KMTN 211045Z 27003KT 6SM HZ SCT150 29/26 A2987=
KMTN 211145Z 25006KT 10SM SCT150 31/26 A2989=
KMTN 211245Z 28010KT 10SM FEW180 32/25 A2990=
KMTN 211345Z 26010KT 10SM SCT180 34/26 A2990=
KMTN 211445Z 29010G18KT 10SM FEW180 34/25 A2989=
KMTN 211545Z 29007KT 10SM FEW060 SCT150 36/24 A2988=
KMTN 211645Z 26008KT 10SM SCT060 SCT250 36/24 A2987=
KMTN 211745Z 30009KT 10SM SCT050 SCT250 37/24 A2987=
KMTN 211845Z 29009G15KT 10SM SCT050 SCT070 37/23 A2986=
KMTN 211950Z 29010KT 10SM SCT060 SCT070 37/24 A2984=
KMTN 212045Z 27006KT 10SM SCT060 SCT075 37/23 A2983=
KMTN 212145Z 27005KT 10SM SCT060 37/24 A2982=
KMTN 212250Z 24005KT 10SM SCT060 37/23 A2983=
KMTN 212345Z 24003KT 10SM SCT200 36/23 A2984=
KMTN 220045Z 00000KT 10SM SCT060 BKN090 OVC200 34/25 A2985 RMK FREQ LTGCCCG
 NW-NE MOV SE=
KMTN 220100Z 27020G33KT 10SM SCT060 BKN090 OVC200 34/24 A2987 RMK FREQ LTGCCCG
 NW-NE MOV SE=
KMTN 220145Z 31007G15KT 10SM BKN090 OVC200 29/22 A2986 RMK CONS LTGCCCG NE-E
 MOV SE=
KMTN 220203Z AUTO 31008KT 10SM CLR 28/22 A2988 RMK AO2 LTG DSNT NE=
KMTN 220221Z AUTO 29007KT 10SM CLR 27/22 A2989 RMK AO2 LTG DSNT N THRU E=
KMTN 220242Z AUTO 29005KT 10SM CLR 27/22 A2989 RMK AO2 LTG DSNT NE=
KMTN 220303Z AUTO 33004KT 10SM CLR 27/22 A2988 RMK AO2=
KMTN 220321Z AUTO 18003KT 10SM CLR 27/22 A2988 RMK AO2=
KMTN 220342Z AUTO 19003KT 10SM CLR 27/22 A2987 RMK AO2=
KMTN 220403Z AUTO 22003KT 10SM CLR 27/22 A2988 RMK AO2=
KMTN 220421Z AUTO 19003KT 10SM CLR 28/22 A2989 RMK AO2=
KMTN 220442Z AUTO 00000KT 10SM SCT080 28/22 A2989 RMK AO2=
KMTN 220503Z AUTO 23005KT 10SM SCT080 27/22 A2989 RMK AO2=
KMTN 220521Z AUTO 00000KT 10SM SCT080 27/22 A2989 RMK AO2=
KMTN 220542Z AUTO 23003KT 10SM BKN090 27/22 A2989 RMK AO2=
KMTN 220603Z AUTO 18003KT 10SM SCT090 27/22 A2989 RMK AO2=